createdAt,value
2018-09-12T00:00:21.818Z,0
2018-09-12T00:01:31.662Z,0
2018-09-12T00:02:41.712Z,0
2018-09-12T00:03:51.593Z,0
2018-09-12T00:05:01.708Z,0
2018-09-12T00:06:11.279Z,0
2018-09-12T00:07:21.390Z,0
2018-09-12T00:08:30.971Z,0
2018-09-12T00:09:40.814Z,0
2018-09-12T00:10:50.665Z,0
2018-09-12T00:12:00.248Z,0
2018-09-12T00:13:09.823Z,0
2018-09-12T00:14:19.663Z,0
2018-09-12T00:15:29.255Z,0
2018-09-12T00:16:38.556Z,0
2018-09-12T00:17:48.132Z,0
2018-09-12T00:18:57.978Z,0
2018-09-12T00:20:07.871Z,0
2018-09-12T00:21:17.951Z,0
2018-09-12T00:22:27.462Z,0
2018-09-12T00:23:37.303Z,0
2018-09-12T00:24:47.418Z,0
2018-09-12T00:25:57.022Z,0
2018-09-12T00:27:06.875Z,0
2018-09-12T00:28:16.721Z,0
2018-09-12T00:29:26.293Z,0
2018-09-12T00:30:36.422Z,0
2018-09-12T00:31:46.540Z,0
2018-09-12T00:32:56.387Z,0
2018-09-12T00:34:05.992Z,0
2018-09-12T00:35:15.568Z,0
2018-09-12T00:36:25.420Z,0
2018-09-12T00:37:34.742Z,0
2018-09-12T00:38:44.588Z,0
2018-09-12T00:39:54.162Z,0
2018-09-12T00:41:04.308Z,0
2018-09-12T00:42:14.415Z,0
2018-09-12T00:43:23.990Z,0
2018-09-12T00:44:33.310Z,0
2018-09-12T00:45:42.597Z,0
2018-09-12T00:46:52.176Z,0
2018-09-12T00:48:02.022Z,0
2018-09-12T00:49:11.876Z,0
2018-09-12T00:50:22.017Z,0
2018-09-12T00:51:31.593Z,0
2018-09-12T00:52:41.435Z,0
2018-09-12T00:53:51.552Z,0
2018-09-12T00:55:01.398Z,0
2018-09-12T00:56:11.513Z,0
2018-09-12T00:57:21.375Z,0
2018-09-12T00:58:31.543Z,0
2018-09-12T00:59:40.847Z,0
2018-09-12T01:00:50.700Z,0
2018-09-12T01:02:00.544Z,0
2018-09-12T01:03:10.691Z,0
2018-09-12T01:04:20.263Z,0
2018-09-12T01:05:29.566Z,0
2018-09-12T01:06:39.683Z,0
2018-09-12T01:07:48.986Z,0
2018-09-12T01:08:59.102Z,0
2018-09-12T01:10:08.684Z,0
2018-09-12T01:11:18.798Z,0
2018-09-12T01:12:28.379Z,0
2018-09-12T01:13:38.224Z,0
2018-09-12T01:14:48.062Z,0
2018-09-12T01:15:57.366Z,0
2018-09-12T01:17:07.208Z,0
2018-09-12T01:18:17.321Z,0
2018-09-12T01:19:26.355Z,0
2018-09-12T01:20:36.503Z,0
2018-09-12T01:21:46.399Z,0
2018-09-12T01:22:56.507Z,0
2018-09-12T01:24:06.088Z,0
2018-09-12T01:25:15.392Z,0
2018-09-12T01:26:25.502Z,0
2018-09-12T01:27:35.343Z,0
2018-09-12T01:28:44.922Z,0
2018-09-12T01:29:54.235Z,0
2018-09-12T01:31:04.087Z,0
2018-09-12T01:32:13.669Z,0
2018-09-12T01:33:23.520Z,0
2018-09-12T01:34:33.398Z,0
2018-09-12T01:35:43.239Z,0
2018-09-12T01:36:53.354Z,0
2018-09-12T01:38:02.984Z,0
2018-09-12T01:39:13.178Z,0
2018-09-12T01:40:23.049Z,0
2018-09-12T01:41:32.894Z,0
2018-09-12T01:42:42.737Z,0
2018-09-12T01:43:52.343Z,0
2018-09-12T01:45:02.486Z,0
2018-09-12T01:46:11.787Z,0
2018-09-12T01:47:21.363Z,0
2018-09-12T01:48:30.942Z,0
2018-09-12T01:49:41.120Z,0
2018-09-12T01:50:51.239Z,0
2018-09-12T01:52:00.545Z,0
2018-09-12T01:53:09.845Z,0
2018-09-12T01:54:19.154Z,0
2018-09-12T01:55:28.461Z,0
2018-09-12T01:56:38.323Z,0
2018-09-12T01:57:48.164Z,0
2018-09-12T01:58:57.741Z,0
2018-09-12T02:00:07.348Z,0
2018-09-12T02:01:17.191Z,0
2018-09-12T02:02:26.771Z,0
2018-09-12T02:03:36.617Z,0
2018-09-12T02:04:46.195Z,0
2018-09-12T02:05:56.033Z,0
2018-09-12T02:07:05.337Z,0
2018-09-12T02:08:14.645Z,0
2018-09-12T02:09:24.766Z,0
2018-09-12T02:10:34.611Z,0
2018-09-12T02:11:44.453Z,0
2018-09-12T02:12:54.289Z,0
2018-09-12T02:14:03.873Z,0
2018-09-12T02:15:13.741Z,0
2018-09-12T02:16:23.584Z,0
2018-09-12T02:17:33.427Z,0
2018-09-12T02:18:43.264Z,0
2018-09-12T02:19:52.841Z,0
2018-09-12T02:21:02.687Z,0
2018-09-12T02:22:12.536Z,0
2018-09-12T02:23:22.380Z,0
2018-09-12T02:24:31.955Z,0
2018-09-12T02:25:41.801Z,0
2018-09-12T02:26:51.102Z,0
2018-09-12T02:28:00.952Z,0
2018-09-12T02:29:10.263Z,0
2018-09-12T02:30:20.110Z,0
2018-09-12T02:31:30.005Z,0
2018-09-12T02:32:39.316Z,0
2018-09-12T02:33:48.354Z,0
2018-09-12T02:34:58.474Z,0
2018-09-12T02:36:08.337Z,0
2018-09-12T02:37:17.918Z,0
2018-09-12T02:38:28.040Z,0
2018-09-12T02:39:37.908Z,0
2018-09-12T02:40:48.035Z,0
2018-09-12T02:41:57.879Z,0
2018-09-12T02:43:08.027Z,0
2018-09-12T02:44:18.145Z,0
2018-09-12T02:45:27.997Z,0
2018-09-12T02:46:37.864Z,0
2018-09-12T02:47:47.982Z,0
2018-09-12T02:48:57.569Z,0
2018-09-12T02:50:07.415Z,0
2018-09-12T02:51:17.265Z,0
2018-09-12T02:52:26.300Z,0
2018-09-12T02:53:36.168Z,0
2018-09-12T02:54:45.745Z,0
2018-09-12T02:55:55.316Z,0
2018-09-12T02:57:05.163Z,0
2018-09-12T02:58:15.272Z,0
2018-09-12T02:59:25.122Z,0
2018-09-12T03:00:35.231Z,0
2018-09-12T03:01:45.071Z,0
2018-09-12T03:02:55.187Z,0
2018-09-12T03:04:04.765Z,0
2018-09-12T03:05:14.603Z,0
2018-09-12T03:06:24.176Z,0
2018-09-12T03:07:33.209Z,0
2018-09-12T03:08:42.786Z,0
2018-09-12T03:09:52.907Z,0
2018-09-12T03:11:02.486Z,0
2018-09-12T03:12:12.109Z,0
2018-09-12T03:13:21.148Z,0
2018-09-12T03:14:31.259Z,0
2018-09-12T03:15:41.166Z,0
2018-09-12T03:16:51.016Z,0
2018-09-12T03:18:00.867Z,0
2018-09-12T03:19:10.451Z,0
2018-09-12T03:20:20.297Z,0
2018-09-12T03:21:30.423Z,0
2018-09-12T03:22:39.491Z,0
2018-09-12T03:23:49.335Z,0
2018-09-12T03:24:59.187Z,0
2018-09-12T03:26:08.762Z,0
2018-09-12T03:27:18.622Z,0
2018-09-12T03:28:27.687Z,0
2018-09-12T03:29:37.538Z,0
2018-09-12T03:30:47.132Z,0
2018-09-12T03:31:57.263Z,0
2018-09-12T03:33:06.839Z,0
2018-09-12T03:34:16.680Z,0
2018-09-12T03:35:26.791Z,0
2018-09-12T03:36:36.374Z,0
2018-09-12T03:37:46.497Z,0
2018-09-12T03:38:56.075Z,0
2018-09-12T03:40:05.921Z,0
2018-09-12T03:41:15.767Z,0
2018-09-12T03:42:25.340Z,0
2018-09-12T03:43:34.644Z,0
2018-09-12T03:44:44.375Z,0
2018-09-12T03:45:54.231Z,0
2018-09-12T03:47:04.121Z,0
2018-09-12T03:48:13.983Z,0
2018-09-12T03:49:23.826Z,0
2018-09-12T03:50:33.671Z,0
2018-09-12T03:51:43.254Z,0
2018-09-12T03:52:53.386Z,0
2018-09-12T03:54:03.512Z,0
2018-09-12T03:55:13.082Z,0
2018-09-12T03:56:22.660Z,0
2018-09-12T03:57:32.497Z,0
2018-09-12T03:58:42.609Z,0
2018-09-12T03:59:52.194Z,0
2018-09-12T04:01:02.050Z,0
2018-09-12T04:02:11.896Z,0
2018-09-12T04:03:21.470Z,0
2018-09-12T04:04:31.315Z,0
2018-09-12T04:05:41.158Z,0
2018-09-12T04:06:50.733Z,0
2018-09-12T04:08:00.855Z,0
2018-09-12T04:09:10.967Z,0
2018-09-12T04:10:20.550Z,0
2018-09-12T04:11:30.665Z,0
2018-09-12T04:12:40.815Z,0
2018-09-12T04:13:50.661Z,0
2018-09-12T04:15:00.232Z,0
2018-09-12T04:16:09.564Z,0
2018-09-12T04:17:19.406Z,0
2018-09-12T04:18:28.976Z,0
2018-09-12T04:19:38.563Z,0
2018-09-12T04:20:48.132Z,0
2018-09-12T04:21:57.999Z,0
2018-09-12T04:23:07.857Z,0
2018-09-12T04:24:18.391Z,0
2018-09-12T04:25:28.066Z,0
2018-09-12T04:26:37.375Z,0
2018-09-12T04:27:47.229Z,0
2018-09-12T04:28:56.531Z,0
2018-09-12T04:30:06.379Z,0
2018-09-12T04:31:15.957Z,0
2018-09-12T04:32:25.054Z,0
2018-09-12T04:33:35.170Z,0
2018-09-12T04:34:45.291Z,0
2018-09-12T04:35:54.867Z,0
2018-09-12T04:37:04.791Z,0
2018-09-12T04:38:14.634Z,0
2018-09-12T04:39:24.800Z,0
2018-09-12T04:40:34.648Z,0
2018-09-12T04:41:44.225Z,0
2018-09-12T04:42:54.914Z,0
2018-09-12T04:44:05.076Z,0
2018-09-12T04:45:15.248Z,0
2018-09-12T04:46:24.822Z,0
2018-09-12T04:47:34.676Z,0
2018-09-12T04:48:45.265Z,0
2018-09-12T04:49:55.393Z,0
2018-09-12T04:51:04.976Z,0
2018-09-12T04:52:14.824Z,0
2018-09-12T04:53:24.679Z,0
2018-09-12T04:54:34.256Z,0
2018-09-12T04:55:43.849Z,0
2018-09-12T04:56:53.424Z,0
2018-09-12T04:58:03.270Z,0
2018-09-12T04:59:13.119Z,0
2018-09-12T05:00:22.431Z,0
2018-09-12T05:01:32.560Z,0
2018-09-12T05:02:42.713Z,0
2018-09-12T05:03:52.577Z,0
2018-09-12T05:05:02.702Z,0
2018-09-12T05:06:12.556Z,5
2018-09-12T05:07:22.402Z,5
2018-09-12T05:08:32.037Z,5
2018-09-12T05:09:41.908Z,5
2018-09-12T05:10:51.756Z,5
2018-09-12T05:12:01.647Z,5
2018-09-12T05:13:11.511Z,5
2018-09-12T05:14:21.428Z,5
2018-09-12T05:15:31.535Z,5
2018-09-12T05:16:42.071Z,5
2018-09-12T05:17:51.305Z,5
2018-09-12T05:19:01.423Z,5
2018-09-12T05:20:11.052Z,5
2018-09-12T05:21:20.358Z,5
2018-09-12T05:22:30.478Z,10
2018-09-12T05:23:40.322Z,10
2018-09-12T05:24:50.160Z,5
2018-09-12T05:26:00.003Z,10
2018-09-12T05:27:09.879Z,10
2018-09-12T05:28:20.007Z,10
2018-09-12T05:29:30.145Z,15
2018-09-12T05:30:40.290Z,25
2018-09-12T05:31:49.875Z,20
2018-09-12T05:32:59.184Z,10
2018-09-12T05:34:09.031Z,20
2018-09-12T05:35:18.600Z,30
2018-09-12T05:36:28.007Z,20
2018-09-12T05:37:38.193Z,15
2018-09-12T05:38:47.768Z,25
2018-09-12T05:39:57.341Z,30
2018-09-12T05:41:06.915Z,20
2018-09-12T05:42:17.059Z,15
2018-09-12T05:43:26.676Z,25
2018-09-12T05:44:36.256Z,20
2018-09-12T05:45:45.591Z,15
2018-09-12T05:46:54.893Z,20
2018-09-12T05:48:05.022Z,25
2018-09-12T05:49:15.136Z,25
2018-09-12T05:50:25.122Z,20
2018-09-12T05:51:34.706Z,30
2018-09-12T05:52:44.517Z,30
2018-09-12T05:53:53.563Z,15
2018-09-12T05:55:03.401Z,20
2018-09-12T05:56:13.483Z,35
2018-09-12T05:57:23.331Z,40
2018-09-12T05:58:33.170Z,35
2018-09-12T05:59:43.550Z,50
2018-09-12T06:00:53.119Z,45
2018-09-12T06:02:02.699Z,35
2018-09-12T06:03:12.547Z,45
2018-09-12T06:04:21.848Z,50
2018-09-12T06:05:31.721Z,45
2018-09-12T06:06:41.988Z,35
2018-09-12T06:07:52.107Z,35
2018-09-12T06:09:01.706Z,35
2018-09-12T06:10:11.281Z,30
2018-09-12T06:11:21.128Z,35
2018-09-12T06:12:31.013Z,35
2018-09-12T06:13:41.357Z,45
2018-09-12T06:14:51.483Z,45
2018-09-12T06:16:01.321Z,35
2018-09-12T06:17:11.174Z,40
2018-09-12T06:18:20.744Z,35
2018-09-12T06:19:30.576Z,30
2018-09-12T06:20:39.878Z,35
2018-09-12T06:21:49.725Z,50
2018-09-12T06:22:59.302Z,45
2018-09-12T06:24:08.871Z,35
2018-09-12T06:25:18.444Z,30
2018-09-12T06:26:28.020Z,35
2018-09-12T06:27:37.588Z,35
2018-09-12T06:28:47.183Z,40
2018-09-12T06:29:57.123Z,45
2018-09-12T06:31:06.704Z,35
2018-09-12T06:32:16.818Z,40
2018-09-12T06:33:26.657Z,45
2018-09-12T06:34:36.768Z,45
2018-09-12T06:35:46.992Z,40
2018-09-12T06:36:56.837Z,35
2018-09-12T06:38:06.407Z,35
2018-09-12T06:39:16.593Z,30
2018-09-12T06:40:25.916Z,30
2018-09-12T06:41:35.765Z,35
2018-09-12T06:42:45.340Z,45
2018-09-12T06:43:55.486Z,35
2018-09-12T06:45:05.595Z,30
2018-09-12T06:46:15.169Z,35
2018-09-12T06:47:25.276Z,40
2018-09-12T06:48:35.114Z,45
2018-09-12T06:49:44.682Z,45
2018-09-12T06:50:54.521Z,45
2018-09-12T06:52:04.364Z,55
2018-09-12T06:53:14.487Z,55
2018-09-12T06:54:23.521Z,40
2018-09-12T06:55:32.823Z,50
2018-09-12T06:56:42.660Z,50
2018-09-12T06:57:52.234Z,55
2018-09-12T06:59:01.264Z,70
2018-09-12T07:00:10.873Z,85
2018-09-12T07:01:20.722Z,95
2018-09-12T07:02:30.326Z,85
2018-09-12T07:03:39.639Z,90
2018-09-12T07:04:49.514Z,90
2018-09-12T07:05:59.090Z,90
2018-09-12T07:07:08.964Z,90
2018-09-12T07:08:18.842Z,95
2018-09-12T07:09:28.149Z,100
2018-09-12T07:10:37.448Z,85
2018-09-12T07:11:47.298Z,100
2018-09-12T07:12:57.138Z,135
2018-09-12T07:14:07.199Z,135
2018-09-12T07:15:17.102Z,130
2018-09-12T07:16:26.983Z,120
2018-09-12T07:17:36.288Z,115
2018-09-12T07:18:45.583Z,130
2018-09-12T07:19:55.431Z,140
2018-09-12T07:21:04.747Z,125
2018-09-12T07:22:14.372Z,115
2018-09-12T07:23:24.211Z,135
2018-09-12T07:24:34.913Z,165
2018-09-12T07:25:45.239Z,185
2018-09-12T07:26:54.769Z,205
2018-09-12T07:28:04.607Z,160
2018-09-12T07:29:14.475Z,140
2018-09-12T07:30:24.430Z,125
2018-09-12T07:31:34.328Z,125
2018-09-12T07:32:44.455Z,130
2018-09-12T07:33:54.296Z,110
2018-09-12T07:35:04.414Z,110
2018-09-12T07:36:14.536Z,140
2018-09-12T07:37:24.131Z,150
2018-09-12T07:38:34.237Z,135
2018-09-12T07:39:44.077Z,160
2018-09-12T07:40:53.651Z,175
2018-09-12T07:42:03.218Z,130
2018-09-12T07:43:13.069Z,115
2018-09-12T07:44:23.179Z,120
2018-09-12T07:45:32.208Z,110
2018-09-12T07:46:41.779Z,115
2018-09-12T07:47:51.888Z,140
2018-09-12T07:49:01.961Z,135
2018-09-12T07:50:12.144Z,125
2018-09-12T07:51:21.713Z,130
2018-09-12T07:52:31.555Z,150
2018-09-12T07:53:41.127Z,165
2018-09-12T07:54:51.257Z,190
2018-09-12T07:56:01.410Z,180
2018-09-12T07:57:10.921Z,145
2018-09-12T07:58:20.764Z,130
2018-09-12T07:59:30.624Z,120
2018-09-12T08:00:41.236Z,105
2018-09-12T08:01:51.105Z,115
2018-09-12T08:03:00.415Z,130
2018-09-12T08:04:10.260Z,140
2018-09-12T08:05:20.675Z,175
2018-09-12T08:06:30.520Z,170
2018-09-12T08:07:40.093Z,120
2018-09-12T08:08:49.935Z,110
2018-09-12T08:10:00.062Z,125
2018-09-12T08:11:09.628Z,185
2018-09-12T08:12:20.337Z,205
2018-09-12T08:13:29.711Z,185
2018-09-12T08:14:39.860Z,135
2018-09-12T08:15:49.722Z,120
2018-09-12T08:17:00.244Z,125
2018-09-12T08:18:09.828Z,145
2018-09-12T08:19:19.877Z,190
2018-09-12T08:20:29.453Z,175
2018-09-12T08:21:39.294Z,160
2018-09-12T08:22:48.871Z,140
2018-09-12T08:23:58.715Z,115
2018-09-12T08:25:08.559Z,145
2018-09-12T08:26:18.685Z,130
2018-09-12T08:27:28.566Z,155
2018-09-12T08:28:38.138Z,160
2018-09-12T08:29:47.983Z,185
2018-09-12T08:30:57.589Z,205
2018-09-12T08:32:06.890Z,170
2018-09-12T08:33:16.867Z,160
2018-09-12T08:34:26.773Z,135
2018-09-12T08:35:36.344Z,135
2018-09-12T08:36:45.917Z,150
2018-09-12T08:37:56.037Z,145
2018-09-12T08:39:05.874Z,160
2018-09-12T08:40:15.453Z,190
2018-09-12T08:41:25.567Z,190
2018-09-12T08:42:36.182Z,210
2018-09-12T08:43:46.062Z,235
2018-09-12T08:44:56.172Z,250
2018-09-12T08:46:05.473Z,250
2018-09-12T08:47:15.316Z,230
2018-09-12T08:48:25.162Z,225
2018-09-12T08:49:34.734Z,235
2018-09-12T08:50:44.303Z,240
2018-09-12T08:51:53.874Z,245
2018-09-12T08:53:04.254Z,250
2018-09-12T08:54:14.150Z,245
2018-09-12T08:55:24.276Z,245
2018-09-12T08:56:33.306Z,245
2018-09-12T08:57:43.150Z,250
2018-09-12T08:58:53.298Z,255
2018-09-12T09:00:03.435Z,265
2018-09-12T09:01:13.329Z,280
2018-09-12T09:02:23.181Z,285
2018-09-12T09:03:33.026Z,290
2018-09-12T09:04:42.866Z,275
2018-09-12T09:05:52.862Z,270
2018-09-12T09:07:02.431Z,265
2018-09-12T09:08:11.729Z,245
2018-09-12T09:09:21.302Z,245
2018-09-12T09:10:31.012Z,245
2018-09-12T09:11:40.887Z,235
2018-09-12T09:12:50.764Z,240
2018-09-12T09:14:00.878Z,250
2018-09-12T09:15:10.720Z,245
2018-09-12T09:16:20.024Z,275
2018-09-12T09:17:30.091Z,240
2018-09-12T09:18:39.673Z,230
2018-09-12T09:19:49.527Z,220
2018-09-12T09:20:59.100Z,205
2018-09-12T09:22:08.669Z,190
2018-09-12T09:23:18.124Z,240
2018-09-12T09:24:27.983Z,295
2018-09-12T09:25:37.831Z,355
2018-09-12T09:26:47.672Z,465
2018-09-12T09:27:57.520Z,480
2018-09-12T09:29:06.826Z,410
2018-09-12T09:30:16.944Z,435
2018-09-12T09:31:26.520Z,495
2018-09-12T09:32:35.968Z,610
2018-09-12T09:33:46.108Z,515
2018-09-12T09:34:56.636Z,405
2018-09-12T09:36:06.269Z,380
2018-09-12T09:37:16.122Z,400
2018-09-12T09:38:25.701Z,380
2018-09-12T09:39:35.542Z,330
2018-09-12T09:40:45.661Z,315
2018-09-12T09:41:55.782Z,315
2018-09-12T09:43:06.014Z,235
2018-09-12T09:44:16.381Z,175
2018-09-12T09:45:26.322Z,185
2018-09-12T09:46:36.471Z,280
2018-09-12T09:47:46.689Z,380
2018-09-12T09:48:56.561Z,430
2018-09-12T09:50:06.137Z,390
2018-09-12T09:51:15.704Z,365
2018-09-12T09:52:25.427Z,390
2018-09-12T09:53:35.313Z,400
2018-09-12T09:54:45.953Z,315
2018-09-12T09:55:55.876Z,280
2018-09-12T09:57:05.181Z,250
2018-09-12T09:58:15.023Z,220
2018-09-12T09:59:25.135Z,185
2018-09-12T10:00:35.423Z,175
2018-09-12T10:01:45.268Z,175
2018-09-12T10:02:55.108Z,160
2018-09-12T10:04:04.678Z,155
2018-09-12T10:05:14.517Z,145
2018-09-12T10:06:24.093Z,160
2018-09-12T10:07:33.668Z,160
2018-09-12T10:08:43.507Z,125
2018-09-12T10:09:53.824Z,105
2018-09-12T10:11:03.396Z,105
2018-09-12T10:12:13.242Z,110
2018-09-12T10:13:22.831Z,115
2018-09-12T10:14:32.707Z,130
2018-09-12T10:15:42.553Z,135
2018-09-12T10:16:52.397Z,145
2018-09-12T10:18:01.967Z,180
2018-09-12T10:19:11.818Z,205
2018-09-12T10:20:21.667Z,245
2018-09-12T10:21:31.573Z,265
2018-09-12T10:22:41.139Z,285
2018-09-12T10:23:50.976Z,335
2018-09-12T10:25:00.281Z,355
2018-09-12T10:26:09.865Z,325
2018-09-12T10:27:19.439Z,335
2018-09-12T10:28:29.279Z,290
2018-09-12T10:29:39.438Z,305
2018-09-12T10:30:49.284Z,300
2018-09-12T10:31:59.128Z,295
2018-09-12T10:33:08.979Z,225
2018-09-12T10:34:19.097Z,245
2018-09-12T10:35:28.954Z,245
2018-09-12T10:36:38.801Z,210
2018-09-12T10:37:48.373Z,225
2018-09-12T10:38:57.957Z,240
2018-09-12T10:40:07.261Z,285
2018-09-12T10:41:17.557Z,300
2018-09-12T10:42:27.401Z,280
2018-09-12T10:43:37.240Z,305
2018-09-12T10:44:46.821Z,315
2018-09-12T10:45:56.124Z,305
2018-09-12T10:47:06.282Z,285
2018-09-12T10:48:16.448Z,320
2018-09-12T10:49:26.292Z,330
2018-09-12T10:50:35.867Z,305
2018-09-12T10:51:45.163Z,270
2018-09-12T10:52:54.734Z,250
2018-09-12T10:54:04.855Z,240
2018-09-12T10:55:14.976Z,250
2018-09-12T10:56:24.813Z,270
2018-09-12T10:57:34.934Z,250
2018-09-12T10:58:44.779Z,250
2018-09-12T10:59:54.358Z,235
2018-09-12T11:01:03.956Z,210
2018-09-12T11:02:13.537Z,225
2018-09-12T11:03:23.369Z,265
2018-09-12T11:04:33.723Z,285
2018-09-12T11:05:43.856Z,290
2018-09-12T11:06:53.739Z,260
2018-09-12T11:08:03.884Z,225
2018-09-12T11:09:13.722Z,235
2018-09-12T11:10:23.833Z,240
2018-09-12T11:11:33.948Z,225
2018-09-12T11:12:44.066Z,200
2018-09-12T11:13:54.225Z,180
2018-09-12T11:15:03.531Z,150
2018-09-12T11:16:13.369Z,130
2018-09-12T11:17:23.476Z,115
2018-09-12T11:18:33.613Z,105
2018-09-12T11:19:43.500Z,105
2018-09-12T11:20:53.351Z,110
2018-09-12T11:22:03.204Z,120
2018-09-12T11:23:13.048Z,125
2018-09-12T11:24:22.621Z,150
2018-09-12T11:25:32.191Z,215
2018-09-12T11:26:42.031Z,280
2018-09-12T11:27:51.619Z,325
2018-09-12T11:29:01.733Z,285
2018-09-12T11:30:11.304Z,230
2018-09-12T11:31:21.155Z,205
2018-09-12T11:32:31.272Z,205
2018-09-12T11:33:41.120Z,230
2018-09-12T11:34:50.967Z,255
2018-09-12T11:36:00.823Z,295
2018-09-12T11:37:11.095Z,320
2018-09-12T11:38:20.126Z,315
2018-09-12T11:39:29.962Z,280
2018-09-12T11:40:40.102Z,285
2018-09-12T11:41:49.944Z,280
2018-09-12T11:42:59.522Z,270
2018-09-12T11:44:09.663Z,245
2018-09-12T11:45:19.505Z,210
2018-09-12T11:46:29.073Z,200
2018-09-12T11:47:39.193Z,195
2018-09-12T11:48:49.305Z,185
2018-09-12T11:49:59.151Z,160
2018-09-12T11:51:08.729Z,145
2018-09-12T11:52:18.576Z,120
2018-09-12T11:53:28.181Z,115
2018-09-12T11:54:38.019Z,115
2018-09-12T11:55:47.775Z,130
2018-09-12T11:56:57.620Z,160
2018-09-12T11:58:07.195Z,190
2018-09-12T11:59:16.222Z,200
2018-09-12T12:00:26.548Z,200
2018-09-12T12:01:36.119Z,210
2018-09-12T12:02:46.241Z,240
2018-09-12T12:03:55.827Z,240
2018-09-12T12:05:05.943Z,220
2018-09-12T12:06:16.470Z,225
2018-09-12T12:07:26.311Z,220
2018-09-12T12:08:35.615Z,230
2018-09-12T12:09:45.729Z,245
2018-09-12T12:10:55.578Z,265
2018-09-12T12:12:05.423Z,285
2018-09-12T12:13:15.536Z,285
2018-09-12T12:14:25.385Z,265
2018-09-12T12:15:35.065Z,315
2018-09-12T12:16:44.623Z,370
2018-09-12T12:17:54.519Z,415
2018-09-12T12:19:04.107Z,465
2018-09-12T12:20:13.425Z,525
2018-09-12T12:21:23.269Z,530
2018-09-12T12:22:32.838Z,510
2018-09-12T12:23:42.610Z,465
2018-09-12T12:24:52.203Z,400
2018-09-12T12:26:02.054Z,370
2018-09-12T12:27:11.630Z,330
2018-09-12T12:28:21.208Z,270
2018-09-12T12:29:30.968Z,225
2018-09-12T12:30:40.808Z,160
2018-09-12T12:31:50.928Z,135
2018-09-12T12:33:00.499Z,120
2018-09-12T12:34:10.079Z,130
2018-09-12T12:35:19.804Z,160
2018-09-12T12:36:29.394Z,195
2018-09-12T12:37:38.967Z,185
2018-09-12T12:38:48.545Z,155
2018-09-12T12:39:58.130Z,165
2018-09-12T12:41:08.057Z,205
2018-09-12T12:42:17.903Z,260
2018-09-12T12:43:27.473Z,300
2018-09-12T12:44:37.043Z,325
2018-09-12T12:45:46.882Z,365
2018-09-12T12:46:56.183Z,480
2018-09-12T12:48:05.769Z,500
2018-09-12T12:49:15.900Z,500
2018-09-12T12:50:25.480Z,535
2018-09-12T12:51:35.633Z,540
2018-09-12T12:52:45.477Z,535
2018-09-12T12:53:55.318Z,460
2018-09-12T12:55:05.163Z,475
2018-09-12T12:56:15.293Z,495
2018-09-12T12:57:24.864Z,470
2018-09-12T12:58:34.440Z,475
2018-09-12T12:59:43.742Z,470
2018-09-12T13:00:53.374Z,470
2018-09-12T13:02:03.490Z,465
2018-09-12T13:03:13.328Z,470
2018-09-12T13:04:23.455Z,495
2018-09-12T13:05:33.736Z,525
2018-09-12T13:06:43.591Z,530
2018-09-12T13:07:53.467Z,500
2018-09-12T13:09:03.042Z,500
2018-09-12T13:10:13.163Z,490
2018-09-12T13:11:22.467Z,490
2018-09-12T13:12:32.032Z,490
2018-09-12T13:13:41.878Z,500
2018-09-12T13:14:52.007Z,495
2018-09-12T13:16:01.871Z,495
2018-09-12T13:17:11.443Z,515
2018-09-12T13:18:21.012Z,495
2018-09-12T13:19:30.893Z,445
2018-09-12T13:20:41.006Z,435
2018-09-12T13:21:51.744Z,425
2018-09-12T13:23:01.415Z,335
2018-09-12T13:24:11.300Z,350
2018-09-12T13:25:21.160Z,325
2018-09-12T13:26:30.461Z,240
2018-09-12T13:27:40.130Z,190
2018-09-12T13:28:49.714Z,180
2018-09-12T13:29:59.624Z,155
2018-09-12T13:31:08.666Z,145
2018-09-12T13:32:17.724Z,130
2018-09-12T13:33:27.644Z,130
2018-09-12T13:34:37.501Z,115
2018-09-12T13:35:47.640Z,110
2018-09-12T13:36:57.573Z,120
2018-09-12T13:38:07.791Z,135
2018-09-12T13:39:17.402Z,130
2018-09-12T13:40:27.025Z,120
2018-09-12T13:41:36.604Z,125
2018-09-12T13:42:46.461Z,135
2018-09-12T13:43:56.091Z,135
2018-09-12T13:45:06.212Z,135
2018-09-12T13:46:15.806Z,140
2018-09-12T13:47:25.118Z,165
2018-09-12T13:48:34.973Z,185
2018-09-12T13:49:44.556Z,230
2018-09-12T13:50:54.674Z,280
2018-09-12T13:52:04.550Z,350
2018-09-12T13:53:13.865Z,415
2018-09-12T13:54:23.189Z,460
2018-09-12T13:55:33.390Z,500
2018-09-12T13:56:44.135Z,465
2018-09-12T13:57:54.078Z,420
2018-09-12T13:59:03.401Z,390
2018-09-12T14:00:12.996Z,345
2018-09-12T14:01:22.035Z,305
2018-09-12T14:02:31.344Z,330
2018-09-12T14:03:40.654Z,345
2018-09-12T14:04:50.508Z,320
2018-09-12T14:05:59.814Z,295
2018-09-12T14:07:09.399Z,270
2018-09-12T14:08:19.240Z,250
2018-09-12T14:09:29.390Z,210
2018-09-12T14:10:39.384Z,215
2018-09-12T14:11:49.228Z,190
2018-09-12T14:12:59.101Z,165
2018-09-12T14:14:08.952Z,135
2018-09-12T14:15:18.791Z,100
2018-09-12T14:16:28.412Z,80
2018-09-12T14:17:38.248Z,80
2018-09-12T14:18:48.359Z,90
2018-09-12T14:19:58.199Z,105
2018-09-12T14:21:07.774Z,125
2018-09-12T14:22:17.613Z,145
2018-09-12T14:23:26.934Z,150
2018-09-12T14:24:36.784Z,160
2018-09-12T14:25:46.632Z,155
2018-09-12T14:26:56.207Z,145
2018-09-12T14:28:06.367Z,140
2018-09-12T14:29:15.667Z,150
2018-09-12T14:30:25.242Z,165
2018-09-12T14:31:34.269Z,175
2018-09-12T14:32:44.116Z,190
2018-09-12T14:33:53.721Z,210
2018-09-12T14:35:03.032Z,220
2018-09-12T14:36:13.145Z,225
2018-09-12T14:37:22.982Z,250
2018-09-12T14:38:32.563Z,245
2018-09-12T14:39:43.123Z,240
2018-09-12T14:40:53.234Z,270
2018-09-12T14:42:02.989Z,290
2018-09-12T14:43:12.911Z,250
2018-09-12T14:44:22.755Z,250
2018-09-12T14:45:32.329Z,255
2018-09-12T14:46:42.170Z,245
2018-09-12T14:47:51.745Z,220
2018-09-12T14:49:01.050Z,195
2018-09-12T14:50:11.169Z,170
2018-09-12T14:51:21.020Z,175
2018-09-12T14:52:31.131Z,185
2018-09-12T14:53:41.252Z,175
2018-09-12T14:54:51.364Z,150
2018-09-12T14:56:01.214Z,145
2018-09-12T14:57:10.789Z,165
2018-09-12T14:58:20.637Z,180
2018-09-12T14:59:29.951Z,200
2018-09-12T15:00:39.793Z,225
2018-09-12T15:01:49.102Z,220
2018-09-12T15:02:59.210Z,220
2018-09-12T15:04:09.323Z,210
2018-09-12T15:05:18.897Z,200
2018-09-12T15:06:29.015Z,185
2018-09-12T15:07:38.315Z,195
2018-09-12T15:08:48.159Z,220
2018-09-12T15:09:58.049Z,255
2018-09-12T15:11:07.351Z,255
2018-09-12T15:12:17.197Z,240
2018-09-12T15:13:27.093Z,225
2018-09-12T15:14:36.945Z,215
2018-09-12T15:15:47.019Z,205
2018-09-12T15:16:56.052Z,190
2018-09-12T15:18:05.896Z,185
2018-09-12T15:19:15.767Z,170
2018-09-12T15:20:25.381Z,145
2018-09-12T15:21:34.689Z,140
2018-09-12T15:22:44.829Z,140
2018-09-12T15:23:54.404Z,150
2018-09-12T15:25:04.257Z,155
2018-09-12T15:26:13.829Z,160
2018-09-12T15:27:23.900Z,165
2018-09-12T15:28:33.764Z,155
2018-09-12T15:29:43.673Z,150
2018-09-12T15:30:53.517Z,145
2018-09-12T15:32:03.099Z,145
2018-09-12T15:33:12.951Z,145
2018-09-12T15:34:22.533Z,150
2018-09-12T15:35:32.671Z,165
2018-09-12T15:36:41.974Z,170
2018-09-12T15:37:51.546Z,180
2018-09-12T15:39:01.398Z,185
2018-09-12T15:40:11.243Z,170
2018-09-12T15:41:20.942Z,155
2018-09-12T15:42:30.860Z,140
2018-09-12T15:43:40.991Z,140
2018-09-12T15:44:51.105Z,140
2018-09-12T15:46:00.696Z,145
2018-09-12T15:47:11.304Z,140
2018-09-12T15:48:21.498Z,135
2018-09-12T15:49:31.079Z,130
2018-09-12T15:50:41.210Z,115
2018-09-12T15:51:50.864Z,115
2018-09-12T15:53:00.437Z,125
2018-09-12T15:54:10.031Z,125
2018-09-12T15:55:20.149Z,120
2018-09-12T15:56:30.261Z,110
2018-09-12T15:57:40.131Z,105
2018-09-12T15:58:49.441Z,100
2018-09-12T15:59:59.296Z,95
2018-09-12T16:01:09.137Z,85
2018-09-12T16:02:18.982Z,75
2018-09-12T16:03:28.606Z,65
2018-09-12T16:04:38.449Z,65
2018-09-12T16:05:48.284Z,70
2018-09-12T16:06:57.321Z,70
2018-09-12T16:08:07.467Z,70
2018-09-12T16:09:17.370Z,70
2018-09-12T16:10:26.943Z,65
2018-09-12T16:11:36.797Z,55
2018-09-12T16:12:46.641Z,50
2018-09-12T16:13:56.762Z,45
2018-09-12T16:15:06.673Z,40
2018-09-12T16:16:16.240Z,35
2018-09-12T16:17:25.813Z,40
2018-09-12T16:18:35.659Z,55
2018-09-12T16:19:45.505Z,65
2018-09-12T16:20:55.555Z,55
2018-09-12T16:22:05.365Z,50
2018-09-12T16:23:15.871Z,45
2018-09-12T16:24:25.477Z,45
2018-09-12T16:25:35.048Z,45
2018-09-12T16:26:44.899Z,45
2018-09-12T16:27:54.773Z,45